Portada
METAR-TAF:

METAR-TAF

Aeropuertos :

Base aérea Cameri

Novara, Italia

latitud: 45-31N, longitud: 008-40E, altitud: 178 m

Observación

El informe se hizo hace 1 hora y 1 minutos, a las 09:55 UTC
Viento 5 kt del este, variando entre noreste y sureste
Temperatura 11°C
Humedad 35%
Presión 1025 hPa
Visibilidad 10 km o más
sin nubes por debajo de 1500 m y sin presencia de cumulonimbus.

METAR: LIMN 200955Z 09005KT 050V130 CAVOK 11/M04 Q1025 RMK BKN FEW120 SCT200 VIS MIN 9999 BLU

Hora: 11:56 (10:56 UTC)

Pronóstico

El informe se hizo hace 2 horas y 56 minutos, a las 08:00 UTC
Pronóstico válido del 20 a las 09 UTC al 20 a las 18 UTC
Viento 4 kt con dirección variable
Visibilidad 10 km o más
sin nubes por debajo de 1500 m y sin presencia de cumulonimbus.

TAF: LIMN 200800Z 2009/2018 VRB04KT CAVOK

Observaciones y pronósticos meteorológicos de más de 4000 aeropuertos (mensajes METAR y TAF).

Los puntos amarillos y rojos representan las estaciones disponibles.

Ponga el ratón en el punto deseado para ver el nombre de la estación.

Haga clic para ver las observaciones y los pronósticos meteorológicos.

Para cambiar el mapa : haga clic en los botones verdes con una cruz de color negro para hacer un zoom, en el botón verde con un guión para alejar o en las flechas verdes para mapas adyacentes.


METAR-TAF: